Time;durP1;ratioP1;P1;durP2;ratioP2;P2;SDS_P1;SDS_P2;PMS_P1;PMS_P2;Temp;Humidity;BMP_temperature;BMP_pressure;BME280_temperature;BME280_humidity;BME280_pressure;Samples;Min_cycle;Max_cycle;Signal;HPM_P1;HPM_P2
2023/08/26 00:00:18;;;;;;;17.73;12.07;;;;;;;25.50;55.85;94620.25;4161433;28;20050;-67
2023/08/26 00:02:19;;;;;;;13.25;11.70;;;;;;;25.50;55.86;94630.19;4159741;28;20049;-67
2023/08/26 00:04:21;;;;;;;14.15;12.27;;;;;;;25.50;55.59;94622.13;4162009;28;20480;-68
2023/08/26 00:06:23;;;;;;;18.15;12.45;;;;;;;25.49;55.76;94626.69;4154619;28;20049;-68
2023/08/26 00:08:25;;;;;;;13.68;12.00;;;;;;;25.46;55.80;94629.06;4158466;28;20049;-68
2023/08/26 00:10:26;;;;;;;14.65;12.18;;;;;;;25.43;55.87;94635.75;4164318;28;20100;-67
2023/08/26 00:12:28;;;;;;;13.43;11.63;;;;;;;25.38;56.14;94624.94;4151548;28;20960;-66
2023/08/26 00:14:32;;;;;;;13.50;11.77;;;;;;;25.38;56.16;94627.63;4161902;28;20053;-68
2023/08/26 00:16:35;;;;;;;13.73;12.27;;;;;;;25.37;56.23;94626.03;4163599;28;20471;-65
2023/08/26 00:18:37;;;;;;;13.45;12.02;;;;;;;25.36;55.80;94627.09;4160728;28;20076;-67
2023/08/26 00:20:40;;;;;;;18.88;11.95;;;;;;;25.35;55.86;94622.78;4166432;28;20052;-68
2023/08/26 00:22:42;;;;;;;14.20;11.75;;;;;;;25.34;55.93;94624.66;4156114;28;20068;-67
2023/08/26 00:24:44;;;;;;;14.35;11.80;;;;;;;25.28;55.94;94625.69;4154213;28;20539;-68
2023/08/26 00:26:46;;;;;;;18.40;12.68;;;;;;;25.24;56.03;94632.59;4162720;28;20724;-67
2023/08/26 00:28:48;;;;;;;17.75;12.73;;;;;;;25.20;56.29;94626.13;4155314;28;20105;-68
2023/08/26 00:30:59;;;;;;;13.23;11.50;;;;;;;25.18;56.12;94628.22;4157763;28;20049;-68
2023/08/26 00:33:01;;;;;;;17.88;11.77;;;;;;;25.15;56.45;94623.38;4162389;28;20052;-69
2023/08/26 00:35:03;;;;;;;12.63;11.32;;;;;;;25.11;56.73;94620.38;4161089;28;20077;-67
2023/08/26 00:37:05;;;;;;;15.43;11.60;;;;;;;25.14;56.45;94616.38;4155369;28;20464;-66
2023/08/26 00:39:07;;;;;;;14.80;11.65;;;;;;;25.15;56.91;94623.38;4145678;28;20673;-68
2023/08/26 00:41:10;;;;;;;15.45;11.68;;;;;;;25.15;56.92;94620.69;4161176;28;20482;-67
2023/08/26 00:43:11;;;;;;;14.93;11.68;;;;;;;25.16;56.90;94619.63;4163225;28;20056;-68
2023/08/26 00:45:13;;;;;;;17.33;11.90;;;;;;;25.17;56.90;94621.25;4161911;28;20416;-67
2023/08/26 00:47:15;;;;;;;19.13;12.35;;;;;;;25.19;56.81;94615.63;4159457;28;20480;-67
2023/08/26 00:49:17;;;;;;;18.38;12.20;;;;;;;25.15;56.92;94612.66;4150209;28;20050;-67
2023/08/26 00:51:20;;;;;;;14.02;12.38;;;;;;;25.14;57.13;94619.06;4157425;28;20508;-66
2023/08/26 00:53:23;;;;;;;16.30;12.80;;;;;;;25.11;56.99;94615.00;4151888;28;20085;-67
2023/08/26 00:55:24;;;;;;;19.23;12.82;;;;;;;25.12;56.97;94622.00;4150806;28;20076;-69
2023/08/26 00:57:26;;;;;;;17.65;12.10;;;;;;;25.09;57.23;94606.41;4149753;28;20067;-68
2023/08/26 00:59:28;;;;;;;18.25;12.80;;;;;;;25.07;57.36;94608.53;4161260;28;20060;-67
2023/08/26 01:01:31;;;;;;;17.98;12.65;;;;;;;25.04;57.50;94613.59;4152652;28;20177;-68
2023/08/26 01:03:33;;;;;;;18.33;12.10;;;;;;;25.05;57.49;94612.53;4155954;28;20136;-68
2023/08/26 01:05:35;;;;;;;23.52;13.63;;;;;;;25.01;57.63;94616.78;4151580;28;20049;-68
2023/08/26 01:07:37;;;;;;;14.65;12.60;;;;;;;24.96;57.77;94614.06;4153200;28;20064;-68
2023/08/26 01:09:39;;;;;;;17.77;13.50;;;;;;;24.92;57.99;94613.72;4158474;28;20128;-69
2023/08/26 01:12:04;;;;;;;17.88;12.93;;;;;;;24.86;57.97;94607.50;4161524;28;20052;-67
2023/08/26 01:14:38;;;;;;;16.63;12.43;;;;;;;24.82;58.17;94609.06;4152392;28;20133;-68
2023/08/26 01:16:40;;;;;;;15.37;12.73;;;;;;;24.78;58.37;94612.47;4147797;28;20382;-68
2023/08/26 01:18:44;;;;;;;18.83;13.88;;;;;;;24.70;58.35;94616.44;4154472;28;20049;-66
2023/08/26 01:20:45;;;;;;;;;;;;;;;24.61;58.84;94608.00;4156640;28;20058;-67
2023/08/26 01:22:51;;;;;;;18.00;13.13;;;;;;;24.47;59.14;94612.88;4154417;28;19926;-67
2023/08/26 01:24:53;;;;;;;15.35;12.73;;;;;;;24.36;59.46;94616.50;4157038;28;20045;-67
2023/08/26 01:26:54;;;;;;;17.33;14.05;;;;;;;24.25;59.68;94607.50;4158602;28;20119;-66
2023/08/26 01:28:56;;;;;;;17.73;13.65;;;;;;;24.20;59.91;94614.66;4157390;28;20537;-68
2023/08/26 01:31:12;;;;;;;16.67;13.10;;;;;;;24.22;59.56;94615.22;4158388;28;20049;-70
2023/08/26 01:33:20;;;;;;;16.80;13.27;;;;;;;24.16;59.73;94617.03;4160511;28;20099;-67
2023/08/26 01:35:30;;;;;;;14.90;12.73;;;;;;;24.06;60.10;94617.66;4158601;28;20046;-66
2023/08/26 01:37:32;;;;;;;20.05;13.48;;;;;;;23.96;60.42;94616.72;4161021;28;20149;-68
2023/08/26 01:39:34;;;;;;;15.80;12.65;;;;;;;23.78;60.79;94615.09;4160472;28;20498;-68
2023/08/26 01:41:38;;;;;;;15.90;12.85;;;;;;;23.70;60.85;94630.47;4143587;28;20046;-67
2023/08/26 01:43:40;;;;;;;15.02;13.30;;;;;;;23.69;60.96;94623.50;4159844;28;20519;-69
2023/08/26 01:45:42;;;;;;;14.98;13.20;;;;;;;23.77;60.81;94614.28;4159154;28;20136;-67
2023/08/26 01:47:44;;;;;;;15.25;12.65;;;;;;;23.86;60.36;94620.06;4157562;28;20115;-68
2023/08/26 01:49:46;;;;;;;15.02;12.07;;;;;;;23.90;60.35;94618.50;4159530;28;20136;-69
2023/08/26 01:51:47;;;;;;;17.75;12.02;;;;;;;23.92;60.14;94622.56;4155940;28;20060;-68
2023/08/26 01:53:49;;;;;;;16.10;13.18;;;;;;;23.92;60.19;94622.56;4155558;28;20534;-67
2023/08/26 01:55:51;;;;;;;17.55;12.68;;;;;;;23.94;60.14;94625.00;4154691;28;20041;-67
2023/08/26 01:57:53;;;;;;;18.30;13.45;;;;;;;23.96;60.11;94624.72;4151499;28;20088;-68
2023/08/26 01:59:55;;;;;;;15.75;13.27;;;;;;;23.97;60.29;94619.16;4156598;28;20088;-68
2023/08/26 02:01:57;;;;;;;18.63;12.40;;;;;;;24.01;60.15;94619.47;4147384;28;20443;-68
2023/08/26 02:04:00;;;;;;;16.90;12.60;;;;;;;24.03;59.85;94626.19;4159936;28;20049;-69
2023/08/26 02:06:02;;;;;;;15.40;13.43;;;;;;;24.02;59.83;94615.72;4158312;28;20042;-68
2023/08/26 02:08:04;;;;;;;14.55;12.45;;;;;;;23.96;59.71;94609.47;4149858;28;20064;-69
2023/08/26 02:10:06;;;;;;;16.08;13.38;;;;;;;23.84;60.20;94603.44;4161345;28;20104;-69
2023/08/26 02:12:08;;;;;;;20.95;12.20;;;;;;;23.55;60.82;94614.16;4149344;28;20076;-68
2023/08/26 02:14:10;;;;;;;15.80;12.25;;;;;;;23.53;61.32;94608.25;4153913;28;20049;-67
2023/08/26 02:16:11;;;;;;;15.55;13.93;;;;;;;23.31;61.88;94608.94;4149705;28;20046;-68
2023/08/26 02:18:13;;;;;;;14.07;11.82;;;;;;;23.15;62.22;94606.25;4158173;28;20120;-68
2023/08/26 02:20:15;;;;;;;18.08;12.90;;;;;;;23.03;62.45;94608.97;4150673;28;20088;-66
2023/08/26 02:22:17;;;;;;;13.98;12.52;;;;;;;22.98;62.77;94600.84;4146104;28;20073;-68
2023/08/26 02:24:19;;;;;;;15.55;12.55;;;;;;;23.07;62.65;94599.44;4155752;28;20427;-67
2023/08/26 02:26:21;;;;;;;17.98;13.40;;;;;;;23.17;62.61;94598.81;4148412;28;20161;-68
2023/08/26 02:28:23;;;;;;;15.25;13.07;;;;;;;23.27;62.30;94599.81;4154091;28;20384;-68
2023/08/26 02:30:24;;;;;;;14.70;13.20;;;;;;;23.38;61.78;94597.28;4158500;28;20456;-67
2023/08/26 02:32:26;;;;;;;15.98;13.75;;;;;;;23.42;61.75;94595.75;4152409;28;20561;-67
2023/08/26 02:34:28;;;;;;;15.35;12.65;;;;;;;23.46;61.76;94595.03;4159508;28;20059;-67
2023/08/26 02:36:30;;;;;;;18.83;13.48;;;;;;;23.45;61.68;94595.28;4160368;28;20116;-68
2023/08/26 02:38:31;;;;;;;18.02;13.68;;;;;;;23.37;61.59;94599.16;4152333;28;20069;-66
2023/08/26 02:40:33;;;;;;;17.15;13.98;;;;;;;23.20;62.44;94596.47;4154782;28;20076;-69
2023/08/26 02:42:35;;;;;;;20.20;13.60;;;;;;;23.14;62.72;94600.09;4152999;28;20057;-68
2023/08/26 02:44:37;;;;;;;17.95;14.23;;;;;;;23.05;62.80;94601.53;4158184;28;20057;-68
2023/08/26 02:46:38;;;;;;;16.25;13.52;;;;;;;23.01;63.33;94597.72;4158147;28;20472;-67
2023/08/26 02:48:40;;;;;;;16.30;14.05;;;;;;;22.89;63.29;94595.06;4154128;28;20049;-67
2023/08/26 02:50:42;;;;;;;18.73;13.77;;;;;;;22.77;63.87;94595.09;4153091;28;20054;-66
2023/08/26 02:52:45;;;;;;;19.83;15.38;;;;;;;22.43;65.02;94594.13;4157785;28;20136;-67
2023/08/26 02:54:47;;;;;;;17.02;13.88;;;;;;;22.46;65.16;94599.03;4152139;28;20469;-67
2023/08/26 02:56:49;;;;;;;18.38;14.07;;;;;;;22.41;65.45;94597.06;4151287;28;20056;-67
2023/08/26 02:58:50;;;;;;;16.83;14.70;;;;;;;22.47;64.88;94596.09;4149474;28;20072;-67
2023/08/26 03:00:55;;;;;;;16.55;14.35;;;;;;;22.48;64.88;94597.72;4155485;28;20459;-69
2023/08/26 03:02:57;;;;;;;18.73;15.27;;;;;;;22.18;65.83;94594.41;4146402;28;20096;-67
2023/08/26 03:04:59;;;;;;;21.83;15.13;;;;;;;22.01;66.71;94592.44;4155464;28;20136;-66
2023/08/26 03:07:00;;;;;;;21.55;15.13;;;;;;;22.14;66.10;94595.91;4153580;28;20057;-67
2023/08/26 03:09:02;;;;;;;17.27;15.43;;;;;;;22.26;66.03;94599.38;4157418;28;20050;-68
2023/08/26 03:11:05;;;;;;;19.08;15.10;;;;;;;22.43;65.27;94594.13;4153742;28;20480;-68
2023/08/26 03:13:07;;;;;;;15.77;14.20;;;;;;;22.59;64.91;94597.94;4154692;28;20132;-68
2023/08/26 03:15:09;;;;;;;22.17;14.65;;;;;;;22.72;64.22;94608.34;4156715;28;20054;-68
2023/08/26 03:17:10;;;;;;;17.23;14.32;;;;;;;22.79;64.20;94614.38;4164854;28;20042;-66
2023/08/26 03:19:12;;;;;;;19.40;15.10;;;;;;;22.77;64.01;94613.78;4152804;28;20045;-66
2023/08/26 03:21:14;;;;;;;16.98;15.25;;;;;;;22.75;64.34;94612.41;4155305;28;20148;-66
2023/08/26 03:23:16;;;;;;;24.55;19.55;;;;;;;22.77;64.25;94608.44;4146863;28;20046;-66
2023/08/26 03:25:18;;;;;;;24.23;19.42;;;;;;;22.83;63.91;94615.50;4149120;28;20488;-68
2023/08/26 03:27:20;;;;;;;23.83;18.88;;;;;;;22.86;64.00;94612.34;4151877;28;20128;-67
2023/08/26 03:29:21;;;;;;;20.17;16.02;;;;;;;22.87;64.14;94619.34;4155573;28;20133;-66
2023/08/26 03:31:23;;;;;;;17.13;15.38;;;;;;;22.88;64.12;94620.94;4156557;28;20053;-69
2023/08/26 03:33:25;;;;;;;20.60;15.13;;;;;;;22.95;63.83;94623.50;4154388;28;20060;-67
2023/08/26 03:35:27;;;;;;;26.70;20.15;;;;;;;23.02;63.81;94626.06;4146375;28;20057;-66
2023/08/26 03:37:28;;;;;;;21.05;14.93;;;;;;;23.06;63.25;94625.34;4144430;28;20050;-66
2023/08/26 03:39:30;;;;;;;17.58;14.80;;;;;;;23.10;62.88;94618.47;4162102;28;20041;-68
2023/08/26 03:41:32;;;;;;;17.63;14.07;;;;;;;23.13;63.07;94624.41;4144106;28;20123;-67
2023/08/26 03:43:33;;;;;;;15.88;14.27;;;;;;;23.13;62.70;94632.41;4144802;28;20045;-68
2023/08/26 03:45:35;;;;;;;18.10;14.82;;;;;;;23.14;62.74;94631.34;4149154;28;20456;-67
2023/08/26 03:47:37;;;;;;;15.75;14.10;;;;;;;23.13;62.89;94630.53;4151610;28;20520;-67
2023/08/26 03:49:39;;;;;;;18.60;14.20;;;;;;;23.15;62.88;94633.78;4153886;28;20500;-67
2023/08/26 03:51:41;;;;;;;17.73;14.55;;;;;;;23.20;62.38;94627.72;4156874;28;20049;-67
2023/08/26 03:53:42;;;;;;;21.00;14.07;;;;;;;23.20;62.61;94625.84;4148265;28;20053;-69
2023/08/26 03:55:45;;;;;;;18.35;13.73;;;;;;;23.21;62.60;94637.34;4156668;28;20049;-67
2023/08/26 03:57:47;;;;;;;15.23;13.32;;;;;;;23.25;62.28;94633.97;4149050;28;20067;-68
2023/08/26 03:59:49;;;;;;;17.70;13.73;;;;;;;23.26;62.09;94630.25;4150408;28;20551;-68
2023/08/26 04:01:51;;;;;;;18.42;14.00;;;;;;;23.28;61.75;94633.50;4150825;28;20780;-69
2023/08/26 04:03:53;;;;;;;17.90;13.45;;;;;;;23.27;61.89;94639.91;4160978;28;20403;-71
2023/08/26 04:06:05;;;;;;;14.75;12.50;;;;;;;23.29;61.68;94624.41;4159384;28;20046;-69
2023/08/26 04:08:07;;;;;;;22.17;13.98;;;;;;;23.22;62.01;94637.13;4152218;28;20100;-71
2023/08/26 04:10:10;;;;;;;21.58;15.20;;;;;;;23.16;62.45;94638.06;4152357;28;20149;-69
2023/08/26 04:12:12;;;;;;;19.08;14.35;;;;;;;23.04;62.90;94643.47;4151114;28;20064;-69
2023/08/26 04:14:13;;;;;;;21.48;15.15;;;;;;;22.98;62.73;94635.56;4148076;28;20046;-67
2023/08/26 04:16:16;;;;;;;19.08;14.93;;;;;;;22.93;63.20;94638.97;4151119;28;20409;-67
2023/08/26 04:18:18;;;;;;;20.30;15.50;;;;;;;22.92;63.22;94644.53;4148444;28;20108;-69
2023/08/26 04:20:20;;;;;;;18.50;15.98;;;;;;;22.75;63.82;94649.78;4159387;28;20358;-67
2023/08/26 04:22:21;;;;;;;20.08;15.98;;;;;;;22.49;64.19;94651.94;4154758;28;20659;-67
2023/08/26 04:24:23;;;;;;;23.00;15.90;;;;;;;22.31;65.09;94641.41;4163662;28;20056;-67
2023/08/26 04:26:26;;;;;;;19.55;14.55;;;;;;;22.17;65.61;94643.44;4162270;28;20407;-67
2023/08/26 04:28:29;;;;;;;18.88;15.20;;;;;;;22.20;65.69;94645.63;4156943;28;20440;-68
2023/08/26 04:30:30;;;;;;;16.92;15.10;;;;;;;22.40;64.98;94648.81;4149796;28;20397;-70
2023/08/26 04:32:32;;;;;;;21.83;16.00;;;;;;;22.48;65.06;94644.97;4157623;28;20061;-66
2023/08/26 04:34:34;;;;;;;19.63;15.30;;;;;;;22.50;64.57;94650.91;4162774;28;20064;-68
2023/08/26 04:36:36;;;;;;;22.77;14.60;;;;;;;22.64;64.62;94651.44;4158012;28;20046;-68
2023/08/26 04:38:38;;;;;;;18.15;14.93;;;;;;;22.77;64.10;94645.84;4154401;28;20188;-70
2023/08/26 04:40:41;;;;;;;19.38;14.57;;;;;;;22.92;63.39;94649.88;4163995;28;20053;-68
2023/08/26 04:42:43;;;;;;;25.95;14.73;;;;;;;23.08;62.75;94651.81;4163191;28;20103;-70
2023/08/26 04:44:45;;;;;;;21.58;15.10;;;;;;;23.19;62.22;94650.97;4156040;28;20056;-68
2023/08/26 04:46:47;;;;;;;20.00;14.65;;;;;;;23.28;62.14;94652.19;4150131;28;20164;-66
2023/08/26 04:48:50;;;;;;;20.05;14.48;;;;;;;23.40;61.87;94654.00;4162734;28;20057;-68
2023/08/26 04:50:52;;;;;;;19.80;14.20;;;;;;;23.48;61.62;94657.09;4163900;28;20413;-67
2023/08/26 04:52:54;;;;;;;17.40;14.10;;;;;;;23.58;60.92;94661.81;4163381;28;20049;-68
2023/08/26 04:54:56;;;;;;;19.20;15.20;;;;;;;23.50;61.15;94662.22;4162958;28;20484;-68
2023/08/26 04:56:57;;;;;;;19.05;15.30;;;;;;;23.54;61.02;94663.34;4160767;28;20049;-68
2023/08/26 04:58:59;;;;;;;20.33;15.27;;;;;;;23.49;61.00;94660.59;4173312;28;20053;-68
2023/08/26 05:01:02;;;;;;;19.70;15.18;;;;;;;23.55;61.30;94659.59;4159129;28;20049;-69
2023/08/26 05:03:06;;;;;;;18.80;14.80;;;;;;;23.67;60.56;94665.72;4156762;28;20141;-70
2023/08/26 05:05:10;;;;;;;22.08;15.02;;;;;;;23.79;60.46;94660.34;4146802;28;20077;-69
2023/08/26 05:07:12;;;;;;;21.83;17.20;;;;;;;23.87;60.30;94662.59;4149420;28;20057;-69
2023/08/26 05:09:13;;;;;;;18.98;15.70;;;;;;;23.93;59.91;94660.81;4160940;28;20049;-68
2023/08/26 05:11:16;;;;;;;17.92;15.80;;;;;;;23.99;59.57;94654.50;4162457;28;20045;-70
2023/08/26 05:13:18;;;;;;;20.98;16.10;;;;;;;24.07;59.51;94653.25;4159205;28;20050;-69
2023/08/26 05:15:20;;;;;;;23.50;15.35;;;;;;;24.11;59.21;94654.41;4156756;28;20049;-68
2023/08/26 05:17:22;;;;;;;18.50;15.63;;;;;;;24.19;59.21;94647.84;4158667;28;20511;-66
2023/08/26 05:19:24;;;;;;;20.10;15.60;;;;;;;24.25;59.21;94650.34;4157502;28;20050;-68
2023/08/26 05:21:30;;;;;;;23.05;15.52;;;;;;;24.32;59.01;94652.84;4161148;28;20512;-67
2023/08/26 05:23:32;;;;;;;18.67;14.73;;;;;;;24.37;58.99;94652.94;4157819;28;20060;-68
2023/08/26 05:25:34;;;;;;;19.45;15.65;;;;;;;24.40;58.88;94652.41;4158654;28;20508;-69
2023/08/26 05:27:36;;;;;;;24.40;15.13;;;;;;;24.46;58.61;94656.00;4158206;28;20045;-67
2023/08/26 05:29:38;;;;;;;18.20;15.25;;;;;;;24.54;58.28;94658.25;4168104;28;20111;-69
2023/08/26 05:31:39;;;;;;;18.25;15.52;;;;;;;24.49;58.20;94658.19;4158968;28;20496;-69
2023/08/26 05:33:41;;;;;;;17.77;15.68;;;;;;;24.22;58.82;94656.19;4155348;28;20045;-68
2023/08/26 05:35:43;;;;;;;20.13;16.80;;;;;;;24.04;59.55;94661.78;4162527;28;20053;-68
2023/08/26 05:37:45;;;;;;;19.58;17.50;;;;;;;24.06;59.74;94652.44;4166302;28;20095;-68
2023/08/26 05:39:47;;;;;;;25.70;19.60;;;;;;;24.24;59.58;94661.28;4160275;28;20056;-70
2023/08/26 05:41:48;;;;;;;25.88;18.45;;;;;;;24.29;59.39;94656.03;4159965;28;20491;-68
2023/08/26 05:43:50;;;;;;;24.77;18.92;;;;;;;24.34;59.57;94661.44;4159777;28;20597;-68
2023/08/26 05:45:55;;;;;;;23.17;18.33;;;;;;;24.39;59.33;94666.03;4159850;28;20117;-68
2023/08/26 05:47:57;;;;;;;24.08;17.02;;;;;;;24.43;59.00;94659.16;4160522;28;20415;-72
2023/08/26 05:50:00;;;;;;;22.48;17.30;;;;;;;24.53;58.71;94652.09;4158643;28;20144;-68
2023/08/26 05:52:02;;;;;;;18.30;16.17;;;;;;;24.52;58.57;94658.53;4160937;28;20037;-69
2023/08/26 05:54:04;;;;;;;21.58;16.77;;;;;;;24.42;58.91;94650.31;4162465;28;20492;-69
2023/08/26 05:56:05;;;;;;;26.98;17.27;;;;;;;24.42;59.28;94653.00;4148552;28;20046;-68
2023/08/26 05:58:07;;;;;;;23.45;16.13;;;;;;;24.54;59.09;94655.56;4162337;28;20115;-68
2023/08/26 06:00:12;;;;;;;20.75;15.77;;;;;;;24.66;58.24;94652.81;4154628;28;20535;-70
2023/08/26 06:02:14;;;;;;;18.13;16.23;;;;;;;24.75;58.05;94658.53;4151596;28;20467;-68
2023/08/26 06:04:16;;;;;;;18.48;16.15;;;;;;;24.81;57.75;94652.19;4156097;28;20099;-69
2023/08/26 06:06:17;;;;;;;19.48;15.68;;;;;;;24.92;57.65;94656.59;4151679;28;20053;-68
2023/08/26 06:08:19;;;;;;;18.40;15.32;;;;;;;24.96;57.30;94651.56;4153060;28;20050;-69
2023/08/26 06:10:21;;;;;;;20.70;15.70;;;;;;;24.77;57.78;94659.09;4153147;28;20052;-69
2023/08/26 06:12:22;;;;;;;20.10;15.30;;;;;;;24.60;58.42;94653.78;4149126;28;20080;-69
2023/08/26 06:14:24;;;;;;;20.33;16.17;;;;;;;24.61;58.39;94653.53;4168803;28;20384;-70
2023/08/26 06:16:26;;;;;;;17.63;15.82;;;;;;;24.58;58.40;94659.38;4160092;28;20049;-67
2023/08/26 06:18:28;;;;;;;22.85;15.60;;;;;;;24.49;58.75;94664.34;4150144;28;20484;-69
2023/08/26 06:20:29;;;;;;;21.90;15.50;;;;;;;24.61;58.24;94648.19;4155260;28;20053;-67
2023/08/26 06:22:31;;;;;;;24.55;15.70;;;;;;;24.50;58.73;94655.28;4160189;28;20457;-68
2023/08/26 06:24:33;;;;;;;22.35;15.55;;;;;;;24.64;58.23;94653.03;4153974;28;20054;-68
2023/08/26 06:26:35;;;;;;;19.70;15.82;;;;;;;24.67;58.18;94654.41;4160032;28;20049;-70
2023/08/26 06:28:37;;;;;;;20.88;15.57;;;;;;;24.58;58.54;94661.25;4151217;28;20049;-68
2023/08/26 06:30:39;;;;;;;18.38;15.05;;;;;;;24.67;58.23;94657.09;4147970;28;20049;-67
2023/08/26 06:32:40;;;;;;;17.85;15.52;;;;;;;24.76;58.12;94660.13;4160781;28;20057;-66
2023/08/26 06:34:42;;;;;;;20.92;15.85;;;;;;;24.77;58.00;94665.25;4144244;28;20050;-69
2023/08/26 06:36:45;;;;;;;16.80;15.15;;;;;;;24.91;57.44;94677.25;4159809;28;20053;-67
2023/08/26 06:38:46;;;;;;;19.85;15.57;;;;;;;25.05;57.30;94671.50;4160105;28;20042;-67
2023/08/26 06:40:57;;;;;;;19.65;14.82;;;;;;;25.12;56.83;94672.09;4161022;28;20053;-67
2023/08/26 06:43:03;;;;;;;20.92;15.45;;;;;;;25.21;56.94;94675.19;4160955;28;20059;-68
2023/08/26 06:45:09;;;;;;;21.45;15.52;;;;;;;25.27;56.55;94671.50;4160323;28;20045;-67
2023/08/26 06:47:13;;;;;;;22.20;14.98;;;;;;;25.29;56.46;94677.41;4158384;28;20115;-68
2023/08/26 06:49:17;;;;;;;18.05;14.85;;;;;;;25.24;56.46;94680.88;4160752;28;20472;-67
2023/08/26 06:51:19;;;;;;;24.98;14.63;;;;;;;25.10;56.83;94680.41;4151335;28;20126;-70
2023/08/26 06:53:21;;;;;;;19.50;14.77;;;;;;;25.19;56.41;94680.78;4157595;28;20412;-68
2023/08/26 06:55:23;;;;;;;19.43;14.77;;;;;;;25.22;56.56;94676.81;4154328;28;20385;-69
2023/08/26 06:57:25;;;;;;;25.00;15.15;;;;;;;25.30;56.56;94676.38;4161620;28;20053;-68
2023/08/26 06:59:28;;;;;;;21.00;14.55;;;;;;;25.38;55.88;94672.41;4149475;28;20172;-68
2023/08/26 07:01:31;;;;;;;27.05;14.50;;;;;;;25.61;55.34;94676.69;4151509;28;20060;-70
2023/08/26 07:03:36;;;;;;;21.77;13.48;;;;;;;25.85;55.25;94677.97;4150824;28;20099;-68
2023/08/26 07:05:43;;;;;;;24.75;13.35;;;;;;;25.53;55.30;94683.31;4155995;28;20054;-68
2023/08/26 07:07:49;;;;;;;17.83;13.00;;;;;;;25.58;55.20;94672.63;4160063;28;20104;-69
2023/08/26 07:09:50;;;;;;;18.80;13.48;;;;;;;25.68;54.89;94677.28;4152037;28;20538;-68
2023/08/26 07:11:52;;;;;;;16.98;13.00;;;;;;;25.75;54.10;94676.03;4146737;28;20056;-72
2023/08/26 07:13:56;;;;;;;18.13;12.70;;;;;;;25.80;53.86;94671.75;4146758;28;20057;-69
2023/08/26 07:15:57;;;;;;;;;;;;;;;25.87;53.71;94667.78;4158276;28;20049;-66
2023/08/26 07:17:59;;;;;;;17.95;11.80;;;;;;;25.80;54.14;94667.19;4148438;28;19925;-68
2023/08/26 07:20:03;;;;;;;15.77;12.30;;;;;;;26.01;53.60;94667.41;4152248;28;20052;-68
2023/08/26 07:22:05;;;;;;;19.20;12.88;;;;;;;26.25;52.90;94667.84;4158264;28;20049;-66
2023/08/26 07:24:09;;;;;;;21.67;12.52;;;;;;;26.48;52.33;94667.47;4159575;28;20447;-69
2023/08/26 07:26:10;;;;;;;16.48;11.80;;;;;;;26.63;51.44;94669.47;4149795;28;20054;-68
2023/08/26 07:28:12;;;;;;;13.02;11.68;;;;;;;26.66;51.24;94665.47;4150586;28;20381;-68
2023/08/26 07:30:14;;;;;;;18.85;12.32;;;;;;;26.50;51.17;94675.25;4157979;28;20385;-69
2023/08/26 07:32:16;;;;;;;17.80;11.55;;;;;;;26.60;51.41;94669.97;4160514;28;20553;-68
2023/08/26 07:34:17;;;;;;;14.85;10.75;;;;;;;26.85;50.64;94663.94;4160153;28;20050;-70
2023/08/26 07:36:20;;;;;;;15.70;11.40;;;;;;;27.04;50.13;94663.47;4160090;28;20057;-67
2023/08/26 07:38:22;;;;;;;16.55;11.50;;;;;;;27.12;49.71;94666.44;4160665;28;20725;-69
2023/08/26 07:40:24;;;;;;;13.85;9.50;;;;;;;27.04;49.27;94655.41;4162260;28;20099;-66
2023/08/26 07:42:26;;;;;;;12.95;9.52;;;;;;;26.98;50.13;94661.84;4161139;28;20107;-65
2023/08/26 07:44:28;;;;;;;12.90;9.20;;;;;;;27.10;49.68;94665.94;4153600;28;20285;-67
2023/08/26 07:46:30;;;;;;;14.43;10.48;;;;;;;27.22;49.50;94662.22;4152018;28;20155;-67
2023/08/26 07:48:35;;;;;;;12.82;10.27;;;;;;;27.33;49.06;94667.34;4152762;28;20049;-69
2023/08/26 07:50:38;;;;;;;41.33;13.57;;;;;;;27.45;48.42;94663.63;4156436;28;20049;-65
2023/08/26 07:52:41;;;;;;;13.93;9.05;;;;;;;27.60;48.16;94666.38;4152296;28;20054;-68
2023/08/26 07:54:44;;;;;;;15.63;9.33;;;;;;;27.74;48.45;94662.06;4158002;28;20072;-71
2023/08/26 07:56:46;;;;;;;13.75;9.52;;;;;;;27.94;47.23;94660.47;4163519;28;20468;-68
2023/08/26 07:58:49;;;;;;;13.07;8.88;;;;;;;28.07;47.17;94659.13;4149122;28;20049;-69
2023/08/26 08:00:51;;;;;;;16.25;9.73;;;;;;;28.18;47.08;94650.00;4146961;28;20058;-70
2023/08/26 08:03:42;;;;;;;25.92;9.90;;;;;;;28.27;46.86;94658.34;4171284;23;20111;-78
2023/08/26 08:06:07;;;;;;;16.73;9.65;;;;;;;28.31;46.43;94648.63;4143586;28;20136;-79
2023/08/26 08:08:11;;;;;;;11.63;9.10;;;;;;;28.18;46.27;94645.41;4155854;28;20092;-76
2023/08/26 08:10:13;;;;;;;13.52;8.95;;;;;;;28.22;46.16;94644.84;4141550;28;20537;-76
2023/08/26 08:12:16;;;;;;;17.33;8.60;;;;;;;28.34;45.92;94640.81;4154101;28;20054;-77
2023/08/26 08:14:17;;;;;;;18.05;8.50;;;;;;;28.56;45.82;94639.72;4145124;28;20503;-79
2023/08/26 08:16:19;;;;;;;12.52;8.50;;;;;;;28.73;45.20;94636.69;4149078;28;20056;-78
2023/08/26 08:18:21;;;;;;;15.20;8.13;;;;;;;28.93;44.78;94642.03;4150351;28;20149;-79
2023/08/26 08:20:23;;;;;;;12.18;8.80;;;;;;;29.11;43.98;94634.44;4146591;28;20046;-77
2023/08/26 08:22:43;;;;;;;10.50;8.13;;;;;;;29.14;43.78;94634.66;4164402;28;20051;-78
2023/08/26 08:24:45;;;;;;;17.15;8.80;;;;;;;29.16;43.96;94627.09;4162174;28;20119;-77
2023/08/26 08:26:47;;;;;;;12.73;8.15;;;;;;;29.03;44.11;94622.28;4159352;28;20068;-79
2023/08/26 08:28:48;;;;;;;14.05;8.77;;;;;;;28.91;43.90;94630.72;4167068;28;20046;-77
2023/08/26 08:30:51;;;;;;;10.80;8.43;;;;;;;28.94;43.80;94621.25;4159268;28;20054;-80
2023/08/26 08:32:53;;;;;;;;;;;;;;;28.84;44.26;94622.09;4146575;28;20061;-77
2023/08/26 08:34:56;;;;;;;12.95;8.40;;;;;;;28.98;43.76;94622.31;4164498;28;20058;-78
2023/08/26 08:36:58;;;;;;;13.40;8.32;;;;;;;29.16;43.18;94629.00;4157587;28;20057;-82
2023/08/26 08:39:00;;;;;;;15.80;8.60;;;;;;;29.29;42.66;94624.91;4160449;28;20057;-78
2023/08/26 08:41:02;;;;;;;11.52;8.95;;;;;;;29.47;42.72;94626.13;4150596;28;20062;-78
2023/08/26 08:43:05;;;;;;;11.80;8.30;;;;;;;29.68;42.82;94622.19;4159130;28;20092;-77
2023/08/26 08:45:07;;;;;;;;;;;;;;;29.82;42.43;94621.63;4154701;28;20056;-80
2023/08/26 08:47:09;;;;;;;11.73;8.25;;;;;;;29.85;41.72;94621.03;4156642;28;19929;-77
2023/08/26 08:49:12;;;;;;;11.33;7.73;;;;;;;30.01;41.53;94617.13;4158994;28;20386;-78
2023/08/26 08:51:14;;;;;;;9.10;8.05;;;;;;;30.13;41.26;94625.66;4168800;28;20287;-78
2023/08/26 08:53:22;;;;;;;9.93;8.55;;;;;;;30.16;41.02;94619.69;4156958;28;20483;-83
2023/08/26 08:55:24;;;;;;;12.50;8.32;;;;;;;30.02;41.04;94618.72;4154829;28;20084;-78
2023/08/26 08:57:31;;;;;;;13.18;8.00;;;;;;;29.91;41.35;94620.72;4153701;28;20129;-75
2023/08/26 08:59:35;;;;;;;16.90;8.77;;;;;;;30.09;41.21;94626.50;4152907;28;20046;-77
2023/08/26 09:01:37;;;;;;;13.15;9.00;;;;;;;30.12;41.26;94615.94;4153202;28;20109;-78
2023/08/26 09:03:40;;;;;;;11.55;9.38;;;;;;;30.17;40.60;94617.78;4131797;28;20057;-80
2023/08/26 09:05:42;;;;;;;9.32;8.43;;;;;;;30.21;40.47;94610.72;4151175;28;20141;-75
2023/08/26 09:07:46;;;;;;;13.90;8.30;;;;;;;30.01;41.13;94614.44;4154868;28;20430;-78
2023/08/26 09:09:48;;;;;;;13.27;8.70;;;;;;;30.17;40.86;94620.50;4165291;28;20158;-76
2023/08/26 09:12:02;;;;;;;17.02;8.20;;;;;;;30.35;40.42;94613.59;4160598;28;20073;-78
2023/08/26 09:14:05;;;;;;;17.58;9.02;;;;;;;30.57;40.29;94607.72;4166664;28;20081;-77
2023/08/26 09:16:07;;;;;;;9.50;8.48;;;;;;;30.58;39.79;94602.00;4155217;28;20457;-78
2023/08/26 09:18:13;;;;;;;10.48;8.88;;;;;;;30.57;39.89;94603.09;4148209;28;20053;-78
2023/08/26 09:20:15;;;;;;;11.93;8.93;;;;;;;30.35;40.15;94608.19;4154612;28;20042;-77
2023/08/26 09:22:19;;;;;;;11.68;9.07;;;;;;;30.39;39.53;94604.66;4165613;28;20079;-80
2023/08/26 09:24:21;;;;;;;15.30;9.10;;;;;;;30.28;39.84;94608.53;4164493;28;20100;-76
2023/08/26 09:26:24;;;;;;;12.15;8.85;;;;;;;30.20;39.77;94601.00;4153082;28;20096;-76